Terminal Aerodrome Forecast
Issued by NWS

Home | Current Version | Previous Version | Text Only | Print | Product List | Glossary On
Versions: 1 2 3 4 5 6 7 8 9 10 11 12 13 14 15
039
FTUS42 TJSJ 270520
TAFJPS
TAF
TJPS 270520Z 2706/2806 VRB03KT P6SM VCSH BKN030
     FM271500 15012KT P6SM FEW030 SCT060
     FM272300 06005KT P6SM FEW030 SCT080=

USA.gov is the U.S. government's official web portal to all federal, state and local government web resources and services.